Time;durP1;ratioP1;P1;durP2;ratioP2;P2;SDS_P1;SDS_P2;PMS_P1;PMS_P2;Temp;Humidity;BMP_temperature;BMP_pressure;BME280_temperature;BME280_humidity;BME280_pressure;Samples;Min_cycle;Max_cycle;Signal;HPM_P1;HPM_P2
2023/08/05 00:02:18;;;;;;;7.07;2.90;;;;;;;;;;5076351;28;20040;-80
2023/08/05 00:04:44;;;;;;;4.67;2.60;;;;;;;;;;5076628;28;20111;-80
2023/08/05 00:07:09;;;;;;;3.78;2.78;;;;;;;;;;5077248;28;20257;-80
2023/08/05 00:09:34;;;;;;;9.35;2.90;;;;;;;;;;5076862;28;20468;-80
2023/08/05 00:12:00;;;;;;;3.53;2.60;;;;;;;;;;5078254;28;20509;-81
2023/08/05 00:14:25;;;;;;;6.78;2.90;;;;;;;;;;5078597;28;20107;-80
2023/08/05 00:16:50;;;;;;;3.50;2.70;;;;;;;;;;5078807;28;20027;-80
2023/08/05 00:19:15;;;;;;;4.27;2.70;;;;;;;;;;5078635;28;20257;-81
2023/08/05 00:21:43;;;;;;;3.00;2.50;;;;;;;;;;5080013;28;20260;-82
2023/08/05 00:24:08;;;;;;;2.95;2.50;;;;;;;;;;5081256;28;20094;-82
2023/08/05 00:26:33;;;;;;;6.35;3.00;;;;;;;;;;5079994;28;20472;-82
2023/08/05 00:28:59;;;;;;;3.50;2.70;;;;;;;;;;5080094;28;20020;-82
2023/08/05 00:31:24;;;;;;;5.60;3.20;;;;;;;;;;5079520;28;20303;-82
2023/08/05 00:33:49;;;;;;;4.97;2.83;;;;;;;;;;5079327;28;20052;-81
2023/08/05 00:36:14;;;;;;;4.23;2.70;;;;;;;;;;5076462;28;20253;-82
2023/08/05 00:38:40;;;;;;;3.75;2.95;;;;;;;;;;5076358;28;20320;-82
2023/08/05 00:41:05;;;;;;;5.83;2.80;;;;;;;;;;5076574;28;20044;-82
2023/08/05 00:43:31;;;;;;;3.97;2.85;;;;;;;;;;5075463;28;20618;-82
2023/08/05 00:45:57;;;;;;;6.32;2.97;;;;;;;;;;5075128;28;20024;-81
2023/08/05 00:48:22;;;;;;;4.40;2.92;;;;;;;;;;5076303;28;20103;-81
2023/08/05 00:50:48;;;;;;;5.85;2.95;;;;;;;;;;5076909;28;20059;-80
2023/08/05 00:53:14;;;;;;;8.35;3.00;;;;;;;;;;5076390;28;20051;-82
2023/08/05 00:55:40;;;;;;;4.50;2.90;;;;;;;;;;5075698;28;20020;-82
2023/08/05 00:58:05;;;;;;;3.75;2.55;;;;;;;;;;5076330;28;20085;-82
2023/08/05 01:00:30;;;;;;;5.80;3.03;;;;;;;;;;5075936;28;20024;-82
2023/08/05 01:02:56;;;;;;;5.07;2.70;;;;;;;;;;5074722;28;20042;-80
2023/08/05 01:05:23;;;;;;;4.47;2.92;;;;;;;;;;5075986;28;20412;-80
2023/08/05 01:07:49;;;;;;;5.82;2.80;;;;;;;;;;5076003;28;20104;-81
2023/08/05 01:10:14;;;;;;;6.97;3.00;;;;;;;;;;5076130;28;20058;-81
2023/08/05 01:12:41;;;;;;;5.35;2.78;;;;;;;;;;5073990;28;20032;-80
2023/08/05 01:15:07;;;;;;;6.35;2.80;;;;;;;;;;5075796;28;20035;-80
2023/08/05 01:17:33;;;;;;;3.97;2.85;;;;;;;;;;5074103;28;20028;-78
2023/08/05 01:20:00;;;;;;;4.90;2.90;;;;;;;;;;5075453;28;20493;-80
2023/08/05 01:22:43;;;;;;;4.45;2.63;;;;;;;;;;5075171;28;20040;-81
2023/08/05 01:25:28;;;;;;;4.43;2.90;;;;;;;;;;5072714;28;20103;-80
2023/08/05 01:27:55;;;;;;;3.88;2.60;;;;;;;;;;5073691;28;20509;-81
2023/08/05 01:30:24;;;;;;;3.88;2.60;;;;;;;;;;5075250;28;20032;-81
2023/08/05 01:32:51;;;;;;;5.82;2.70;;;;;;;;;;5075036;28;20446;-81
2023/08/05 01:35:19;;;;;;;4.13;2.60;;;;;;;;;;5074199;28;20021;-79
2023/08/05 01:37:46;;;;;;;4.82;2.50;;;;;;;;;;5074670;28;20076;-80
2023/08/05 01:40:11;;;;;;;7.90;2.97;;;;;;;;;;5075420;28;20375;-81
2023/08/05 01:42:37;;;;;;;5.53;2.60;;;;;;;;;;5075403;28;20032;-80
2023/08/05 01:45:02;;;;;;;3.97;2.57;;;;;;;;;;5073962;28;20639;-80
2023/08/05 01:47:27;;;;;;;4.57;2.70;;;;;;;;;;5075368;28;20344;-79
2023/08/05 01:49:53;;;;;;;4.30;2.70;;;;;;;;;;5072988;28;20478;-80
2023/08/05 01:52:18;;;;;;;5.35;2.55;;;;;;;;;;5075276;28;20304;-80
2023/08/05 01:54:43;;;;;;;6.55;2.70;;;;;;;;;;5073797;28;20028;-80
2023/08/05 01:57:08;;;;;;;6.90;2.70;;;;;;;;;;5075562;28;20116;-80
2023/08/05 01:59:34;;;;;;;3.37;2.33;;;;;;;;;;5075873;28;20423;-79
2023/08/05 02:01:59;;;;;;;4.57;2.50;;;;;;;;;;5075303;28;20249;-79
2023/08/05 02:04:24;;;;;;;4.17;2.30;;;;;;;;;;5075579;28;20260;-80
2023/08/05 02:06:50;;;;;;;3.07;2.47;;;;;;;;;;5075754;28;20288;-81
2023/08/05 02:09:15;;;;;;;3.85;2.65;;;;;;;;;;5075787;28;20280;-79
2023/08/05 02:11:40;;;;;;;3.55;2.72;;;;;;;;;;5073939;28;20016;-80
2023/08/05 02:14:05;;;;;;;3.43;2.57;;;;;;;;;;5075205;28;20035;-80
2023/08/05 02:16:34;;;;;;;4.60;2.53;;;;;;;;;;5073831;28;20254;-80
2023/08/05 02:18:59;;;;;;;4.38;2.50;;;;;;;;;;5075081;28;20016;-79
2023/08/05 02:21:24;;;;;;;3.53;2.55;;;;;;;;;;5074820;28;20100;-80
2023/08/05 02:23:51;;;;;;;6.47;2.50;;;;;;;;;;5073546;28;20027;-80
2023/08/05 02:26:16;;;;;;;5.22;2.60;;;;;;;;;;5075042;28;20021;-81
2023/08/05 02:28:41;;;;;;;6.03;2.30;;;;;;;;;;5073589;28;20074;-78
2023/08/05 02:31:07;;;;;;;3.20;2.30;;;;;;;;;;5073093;28;20387;-77
2023/08/05 02:33:32;;;;;;;4.25;2.72;;;;;;;;;;5075369;28;20055;-79
2023/08/05 02:35:58;;;;;;;4.80;2.28;;;;;;;;;;5074710;28;20474;-80
2023/08/05 02:38:23;;;;;;;4.95;2.50;;;;;;;;;;5074714;28;20023;-79
2023/08/05 02:40:49;;;;;;;4.38;2.50;;;;;;;;;;5073558;28;20521;-79
2023/08/05 02:43:14;;;;;;;4.22;2.50;;;;;;;;;;5075066;28;20025;-81
2023/08/05 02:45:39;;;;;;;4.50;2.50;;;;;;;;;;5073777;28;20115;-82
2023/08/05 02:48:05;;;;;;;5.50;2.40;;;;;;;;;;5073500;28;20633;-81
2023/08/05 02:50:30;;;;;;;4.82;2.42;;;;;;;;;;5074417;28;20020;-80
2023/08/05 02:52:55;;;;;;;4.97;2.50;;;;;;;;;;5074474;28;20021;-82
2023/08/05 02:55:21;;;;;;;3.33;2.50;;;;;;;;;;5073367;28;20602;-81
2023/08/05 02:57:46;;;;;;;4.55;2.72;;;;;;;;;;5073069;28;20501;-80
2023/08/05 03:00:12;;;;;;;4.15;2.55;;;;;;;;;;5073868;28;20055;-81
2023/08/05 03:02:37;;;;;;;4.25;2.50;;;;;;;;;;5077547;28;20067;-80
2023/08/05 03:05:02;;;;;;;3.37;2.57;;;;;;;;;;5077735;28;20021;-80
2023/08/05 03:07:28;;;;;;;3.38;2.47;;;;;;;;;;5078371;28;20264;-80
2023/08/05 03:09:53;;;;;;;3.87;2.63;;;;;;;;;;5077073;28;20028;-80
2023/08/05 03:12:18;;;;;;;5.53;2.70;;;;;;;;;;5077214;28;20662;-80
2023/08/05 03:14:43;;;;;;;4.40;2.45;;;;;;;;;;5078206;28;20253;-80
2023/08/05 03:17:09;;;;;;;5.93;2.80;;;;;;;;;;5076825;28;20028;-80
2023/08/05 03:19:34;;;;;;;3.17;2.35;;;;;;;;;;5076902;28;20040;-81
2023/08/05 03:21:59;;;;;;;4.78;2.58;;;;;;;;;;5078060;28;20063;-81
2023/08/05 03:24:25;;;;;;;5.75;2.65;;;;;;;;;;5076366;28;20055;-81
2023/08/05 03:26:51;;;;;;;3.92;2.58;;;;;;;;;;5076805;28;20028;-81
2023/08/05 03:29:16;;;;;;;4.63;2.80;;;;;;;;;;5077422;28;20021;-81
2023/08/05 03:31:41;;;;;;;6.47;2.60;;;;;;;;;;5077672;28;20028;-79
2023/08/05 03:34:07;;;;;;;3.15;2.53;;;;;;;;;;5078181;28;20074;-79
2023/08/05 03:36:32;;;;;;;3.08;2.47;;;;;;;;;;5077738;28;20056;-80
2023/08/05 03:38:57;;;;;;;2.78;2.22;;;;;;;;;;5076002;28;20039;-83
2023/08/05 03:41:22;;;;;;;6.18;2.63;;;;;;;;;;5076479;28;20038;-77
2023/08/05 03:43:48;;;;;;;3.93;2.60;;;;;;;;;;5077206;28;20029;-81
2023/08/05 03:46:13;;;;;;;3.05;2.60;;;;;;;;;;5077777;28;20261;-80
2023/08/05 03:48:39;;;;;;;5.47;2.60;;;;;;;;;;5075977;28;20025;-81
2023/08/05 03:51:04;;;;;;;3.37;2.70;;;;;;;;;;5077375;28;20032;-79
2023/08/05 03:53:29;;;;;;;3.92;2.63;;;;;;;;;;5075880;28;20253;-81
2023/08/05 03:55:55;;;;;;;3.15;2.72;;;;;;;;;;5075902;28;20029;-79
2023/08/05 03:58:20;;;;;;;5.20;3.10;;;;;;;;;;5076413;28;20017;-80
2023/08/05 04:00:45;;;;;;;5.30;3.03;;;;;;;;;;5077091;28;20027;-79
2023/08/05 04:03:11;;;;;;;5.10;3.08;;;;;;;;;;5077420;28;20024;-80
2023/08/05 04:05:36;;;;;;;5.10;3.10;;;;;;;;;;5076688;28;20040;-80
2023/08/05 04:08:02;;;;;;;6.32;2.97;;;;;;;;;;5076726;28;20388;-81
2023/08/05 04:10:28;;;;;;;3.95;3.00;;;;;;;;;;5076419;28;20154;-81
2023/08/05 04:12:54;;;;;;;4.30;2.92;;;;;;;;;;5075654;28;20020;-80
2023/08/05 04:15:20;;;;;;;5.35;3.03;;;;;;;;;;5075504;28;20605;-79
2023/08/05 04:17:45;;;;;;;5.35;2.90;;;;;;;;;;5075401;28;20024;-81
2023/08/05 04:20:14;;;;;;;5.45;2.90;;;;;;;;;;5076685;28;20028;-80
2023/08/05 04:22:39;;;;;;;4.78;2.78;;;;;;;;;;5075211;28;20052;-81
2023/08/05 04:25:05;;;;;;;3.25;2.60;;;;;;;;;;5075452;28;20032;-79
2023/08/05 04:27:31;;;;;;;4.28;2.85;;;;;;;;;;5076551;28;20031;-81
2023/08/05 04:29:58;;;;;;;4.60;2.92;;;;;;;;;;5074990;28;20028;-81
2023/08/05 04:32:23;;;;;;;4.70;2.70;;;;;;;;;;5075971;28;20054;-81
2023/08/05 04:34:48;;;;;;;7.40;3.30;;;;;;;;;;5076478;28;20025;-80
2023/08/05 04:37:18;;;;;;;3.20;2.90;;;;;;;;;;5076692;28;20032;-79
2023/08/05 04:39:44;;;;;;;4.45;2.65;;;;;;;;;;5076185;28;20249;-81
2023/08/05 04:42:09;;;;;;;6.45;2.60;;;;;;;;;;5076314;28;20111;-81
2023/08/05 04:44:35;;;;;;;6.30;2.88;;;;;;;;;;5076144;28;20101;-81
2023/08/05 04:47:00;;;;;;;5.50;2.88;;;;;;;;;;5076262;28;20026;-82
2023/08/05 04:49:25;;;;;;;5.57;2.70;;;;;;;;;;5074470;28;20021;-81
2023/08/05 04:51:50;;;;;;;3.83;2.83;;;;;;;;;;5075641;28;20024;-80
2023/08/05 04:54:16;;;;;;;7.27;2.97;;;;;;;;;;5076572;28;20047;-81
2023/08/05 04:56:41;;;;;;;5.05;3.00;;;;;;;;;;5076050;28;20262;-81
2023/08/05 04:59:09;;;;;;;4.67;2.90;;;;;;;;;;5076107;28;20016;-82
2023/08/05 05:01:34;;;;;;;5.88;2.67;;;;;;;;;;5075427;28;20319;-81
2023/08/05 05:03:59;;;;;;;8.30;3.47;;;;;;;;;;5075868;28;20021;-81
2023/08/05 05:06:25;;;;;;;4.82;2.80;;;;;;;;;;5075960;28;20292;-81
2023/08/05 05:08:50;;;;;;;3.33;2.53;;;;;;;;;;5074301;28;20063;-82
2023/08/05 05:11:15;;;;;;;4.80;2.75;;;;;;;;;;5075241;28;20487;-81
2023/08/05 05:13:43;;;;;;;4.03;2.90;;;;;;;;;;5075079;28;20024;-80
2023/08/05 05:16:09;;;;;;;5.25;3.00;;;;;;;;;;5075468;28;20101;-81
2023/08/05 05:18:34;;;;;;;5.63;2.80;;;;;;;;;;5073707;28;20067;-81
2023/08/05 05:21:00;;;;;;;5.53;3.27;;;;;;;;;;5074049;28;20058;-81
2023/08/05 05:23:26;;;;;;;5.85;3.20;;;;;;;;;;5073871;28;20619;-80
2023/08/05 05:25:51;;;;;;;4.22;3.25;;;;;;;;;;5075305;28;20031;-80
2023/08/05 05:28:16;;;;;;;4.55;2.78;;;;;;;;;;5074346;28;20017;-81
2023/08/05 05:30:42;;;;;;;6.53;3.00;;;;;;;;;;5075430;28;20039;-80
2023/08/05 05:33:07;;;;;;;5.70;3.00;;;;;;;;;;5075349;28;20039;-81
2023/08/05 05:35:32;;;;;;;4.32;2.70;;;;;;;;;;5075307;28;20035;-81
2023/08/05 05:37:57;;;;;;;4.03;2.77;;;;;;;;;;5074690;28;20013;-79
2023/08/05 05:40:23;;;;;;;6.03;3.00;;;;;;;;;;5074547;28;20266;-81
2023/08/05 05:42:49;;;;;;;8.55;2.45;;;;;;;;;;5074116;28;20047;-81
2023/08/05 05:45:14;;;;;;;4.75;2.70;;;;;;;;;;5075920;28;20099;-80
2023/08/05 05:47:40;;;;;;;5.38;2.60;;;;;;;;;;5074740;28;20169;-81
2023/08/05 05:50:06;;;;;;;3.70;2.50;;;;;;;;;;5075596;28;20024;-79
2023/08/05 05:52:31;;;;;;;5.78;2.53;;;;;;;;;;5075313;28;20101;-79
2023/08/05 05:54:57;;;;;;;3.40;2.53;;;;;;;;;;5075538;28;20024;-81
2023/08/05 05:57:23;;;;;;;2.90;2.20;;;;;;;;;;5075674;28;20060;-81
2023/08/05 05:59:48;;;;;;;6.90;2.35;;;;;;;;;;5075466;28;20736;-81
2023/08/05 06:02:14;;;;;;;6.05;2.47;;;;;;;;;;5074991;28;20050;-80
2023/08/05 06:04:39;;;;;;;2.90;2.60;;;;;;;;;;5075364;28;20052;-81
2023/08/05 06:07:05;;;;;;;3.63;2.47;;;;;;;;;;5075071;28;20028;-81
2023/08/05 06:09:31;;;;;;;2.90;2.42;;;;;;;;;;5073808;28;20052;-80
2023/08/05 06:11:57;;;;;;;4.28;2.65;;;;;;;;;;5074469;28;20025;-81
2023/08/05 06:14:22;;;;;;;3.83;2.30;;;;;;;;;;5074713;28;20032;-79
2023/08/05 06:16:47;;;;;;;5.22;2.55;;;;;;;;;;5074661;28;20099;-80
2023/08/05 06:19:12;;;;;;;3.90;2.40;;;;;;;;;;5074755;28;20020;-80
2023/08/05 06:21:38;;;;;;;3.83;2.38;;;;;;;;;;5074136;28;20569;-80
2023/08/05 06:24:03;;;;;;;3.45;2.33;;;;;;;;;;5074830;28;20064;-80
2023/08/05 06:26:29;;;;;;;4.30;2.50;;;;;;;;;;5074860;28;20107;-80
2023/08/05 06:28:54;;;;;;;5.65;2.47;;;;;;;;;;5074353;28;20020;-80
2023/08/05 06:31:20;;;;;;;2.85;2.40;;;;;;;;;;5075731;28;20028;-77
2023/08/05 06:33:45;;;;;;;6.80;2.42;;;;;;;;;;5072270;28;20403;-77
2023/08/05 06:36:10;;;;;;;4.53;2.25;;;;;;;;;;5073953;28;20495;-74
2023/08/05 06:38:36;;;;;;;4.00;2.40;;;;;;;;;;5076229;28;20434;-76
2023/08/05 06:41:01;;;;;;;4.75;2.55;;;;;;;;;;5076255;28;20028;-77
2023/08/05 06:43:27;;;;;;;4.22;2.33;;;;;;;;;;5074781;28;20103;-74
2023/08/05 06:45:52;;;;;;;4.25;2.50;;;;;;;;;;5075979;28;20024;-76
2023/08/05 06:48:17;;;;;;;5.78;2.60;;;;;;;;;;5076388;28;20017;-75
2023/08/05 06:50:43;;;;;;;8.48;2.33;;;;;;;;;;5075269;28;20497;-74
2023/08/05 06:53:08;;;;;;;4.28;2.40;;;;;;;;;;5076815;28;20124;-75
2023/08/05 06:55:33;;;;;;;6.72;2.10;;;;;;;;;;5075879;28;20536;-78
2023/08/05 06:57:58;;;;;;;3.07;2.13;;;;;;;;;;5076167;28;20013;-77
2023/08/05 07:00:24;;;;;;;3.57;2.07;;;;;;;;;;5076049;28;20265;-76
2023/08/05 07:02:49;;;;;;;4.53;2.10;;;;;;;;;;5074552;28;20257;-76
2023/08/05 07:05:14;;;;;;;5.30;2.47;;;;;;;;;;5075261;28;20055;-76
2023/08/05 07:07:39;;;;;;;3.50;2.25;;;;;;;;;;5075630;28;20059;-75
2023/08/05 07:10:07;;;;;;;5.65;2.28;;;;;;;;;;5074481;28;20066;-76
2023/08/05 07:12:34;;;;;;;3.85;1.90;;;;;;;;;;5075965;28;20048;-75
2023/08/05 07:14:59;;;;;;;5.07;2.03;;;;;;;;;;5075795;28;20020;-76
2023/08/05 07:17:25;;;;;;;3.35;2.33;;;;;;;;;;5074545;28;20035;-75
2023/08/05 07:19:51;;;;;;;3.47;2.20;;;;;;;;;;5075758;28;20059;-76
2023/08/05 07:22:16;;;;;;;2.88;2.10;;;;;;;;;;5075423;28;20072;-75
2023/08/05 07:24:41;;;;;;;2.53;1.73;;;;;;;;;;5075690;28;20031;-75
2023/08/05 07:27:06;;;;;;;4.40;2.20;;;;;;;;;;5075662;28;20036;-76
2023/08/05 07:29:32;;;;;;;3.78;2.00;;;;;;;;;;5074352;28;20270;-76
2023/08/05 07:31:57;;;;;;;3.25;2.38;;;;;;;;;;5074975;28;20024;-78
2023/08/05 07:34:23;;;;;;;3.45;2.15;;;;;;;;;;5076198;28;20025;-75
2023/08/05 07:36:49;;;;;;;3.25;1.90;;;;;;;;;;5075478;28;20020;-74
2023/08/05 07:39:14;;;;;;;3.90;2.35;;;;;;;;;;5075854;28;20077;-75
2023/08/05 07:41:39;;;;;;;2.75;2.10;;;;;;;;;;5076514;28;20016;-75
2023/08/05 07:44:07;;;;;;;2.47;1.70;;;;;;;;;;5075208;28;20527;-77
2023/08/05 07:46:36;;;;;;;2.95;1.88;;;;;;;;;;5074363;28;20048;-74
2023/08/05 07:49:04;;;;;;;7.82;2.10;;;;;;;;;;5075195;28;20034;-75
2023/08/05 07:51:30;;;;;;;6.30;1.90;;;;;;;;;;5073896;28;20024;-75
2023/08/05 07:53:57;;;;;;;2.88;2.10;;;;;;;;;;5074893;28;20016;-76
2023/08/05 07:56:23;;;;;;;3.17;2.00;;;;;;;;;;5073485;28;20418;-74
2023/08/05 07:58:48;;;;;;;4.30;2.10;;;;;;;;;;5073619;28;20012;-74
2023/08/05 08:01:24;;;;;;;3.65;2.15;;;;;;;;;;5075063;28;20035;-75
2023/08/05 08:03:53;;;;;;;3.25;2.00;;;;;;;;;;5075375;28;20025;-74
2023/08/05 08:06:21;;;;;;;3.55;2.13;;;;;;;;;;5073909;28;20498;-75
2023/08/05 08:08:47;;;;;;;3.95;2.10;;;;;;;;;;5074725;28;20380;-74
2023/08/05 08:11:13;;;;;;;4.10;1.90;;;;;;;;;;5074651;28;20054;-74
2023/08/05 08:13:39;;;;;;;4.78;2.20;;;;;;;;;;5075169;28;20028;-75
2023/08/05 08:16:04;;;;;;;2.55;2.00;;;;;;;;;;5074517;28;20034;-75
2023/08/05 08:18:30;;;;;;;2.65;1.83;;;;;;;;;;5074582;28;20103;-74
2023/08/05 08:20:55;;;;;;;4.43;1.80;;;;;;;;;;5074629;28;20029;-75
2023/08/05 08:23:20;;;;;;;6.60;1.70;;;;;;;;;;5074773;28;20563;-75
2023/08/05 08:25:46;;;;;;;3.90;2.10;;;;;;;;;;5074568;28;20028;-75
2023/08/05 08:28:11;;;;;;;1.98;1.38;;;;;;;;;;5073122;28;20029;-75
2023/08/05 08:30:36;;;;;;;2.22;1.70;;;;;;;;;;5074293;28;20042;-75
2023/08/05 08:33:03;;;;;;;2.60;1.50;;;;;;;;;;5073066;28;20044;-74
2023/08/05 08:35:28;;;;;;;3.78;1.73;;;;;;;;;;5074274;28;20269;-73
2023/08/05 08:37:54;;;;;;;3.88;1.77;;;;;;;;;;5074279;28;20029;-75
2023/08/05 08:40:19;;;;;;;2.80;1.73;;;;;;;;;;5072842;28;20411;-75
2023/08/05 08:42:44;;;;;;;4.43;1.77;;;;;;;;;;5073946;28;20062;-75
2023/08/05 08:45:14;;;;;;;3.53;1.57;;;;;;;;;;5073971;28;20021;-73
2023/08/05 08:47:40;;;;;;;4.18;2.17;;;;;;;;;;5072513;28;20261;-76
2023/08/05 08:50:07;;;;;;;3.08;1.67;;;;;;;;;;5073452;28;20099;-74
2023/08/05 08:52:32;;;;;;;5.55;1.90;;;;;;;;;;5072226;28;20498;-75
2023/08/05 08:54:58;;;;;;;1.70;1.60;;;;;;;;;;5073432;28;20064;-74
2023/08/05 08:57:23;;;;;;;4.45;1.67;;;;;;;;;;5073630;28;20020;-77
2023/08/05 08:59:48;;;;;;;3.53;1.60;;;;;;;;;;5073457;28;20021;-76
2023/08/05 09:02:23;;;;;;;4.57;1.92;;;;;;;;;;5073648;28;20111;-76
2023/08/05 09:04:51;;;;;;;1.80;1.60;;;;;;;;;;5073179;28;20032;-76
2023/08/05 09:07:17;;;;;;;2.15;1.52;;;;;;;;;;5073596;28;20036;-77
2023/08/05 09:09:48;;;;;;;3.20;1.60;;;;;;;;;;5071705;28;20025;-77
2023/08/05 09:12:15;;;;;;;2.20;1.70;;;;;;;;;;5074220;28;20062;-78
2023/08/05 09:14:40;;;;;;;4.32;1.92;;;;;;;;;;5073807;28;20024;-76
2023/08/05 09:17:06;;;;;;;3.20;1.60;;;;;;;;;;5076588;28;20050;-78
2023/08/05 09:19:31;;;;;;;5.47;1.60;;;;;;;;;;5076502;28;20467;-81
2023/08/05 09:22:00;;;;;;;5.05;1.70;;;;;;;;;;5075274;28;20017;-82
2023/08/05 09:24:26;;;;;;;3.63;1.60;;;;;;;;;;5078416;28;20067;-79
2023/08/05 09:26:56;;;;;;;3.88;1.65;;;;;;;;;;5078361;28;20032;-82
2023/08/05 09:29:22;;;;;;;4.70;1.92;;;;;;;;;;5077112;28;20146;-78
2023/08/05 09:32:01;;;;;;;4.25;1.50;;;;;;;;;;5077551;28;20032;-78
2023/08/05 09:34:35;;;;;;;6.95;1.80;;;;;;;;;;5077903;28;20024;-80
2023/08/05 09:37:02;;;;;;;5.70;1.55;;;;;;;;;;5074527;28;20399;-78
2023/08/05 09:39:45;;;;;;;2.15;1.50;;;;;;;;;;5074084;28;20016;-79
2023/08/05 09:42:19;;;;;;;1.63;1.35;;;;;;;;;;5075683;28;20092;-80
2023/08/05 09:44:44;;;;;;;3.08;1.40;;;;;;;;;;5075531;28;20032;-78
2023/08/05 09:47:12;;;;;;;4.90;1.92;;;;;;;;;;5074403;28;20376;-77
2023/08/05 09:49:38;;;;;;;4.82;1.58;;;;;;;;;;5073540;28;20029;-78
2023/08/05 09:52:05;;;;;;;2.17;1.30;;;;;;;;;;5071884;28;20020;-78
2023/08/05 09:54:32;;;;;;;2.97;1.50;;;;;;;;;;5072989;28;20055;-81
2023/08/05 09:57:00;;;;;;;2.00;1.38;;;;;;;;;;5071804;28;20048;-77
2023/08/05 09:59:26;;;;;;;4.18;1.70;;;;;;;;;;5071738;28;20526;-77
2023/08/05 10:01:52;;;;;;;2.83;1.42;;;;;;;;;;5070991;28;20048;-78
2023/08/05 10:04:17;;;;;;;2.97;1.40;;;;;;;;;;5071830;28;20029;-77
2023/08/05 10:06:43;;;;;;;3.47;1.65;;;;;;;;;;5071788;28;20031;-77
2023/08/05 10:09:08;;;;;;;2.35;1.40;;;;;;;;;;5072798;28;20028;-77
2023/08/05 10:11:36;;;;;;;2.40;1.50;;;;;;;;;;5076164;28;20020;-77
2023/08/05 10:14:03;;;;;;;3.13;1.50;;;;;;;;;;5077312;28;20261;-76
2023/08/05 10:16:29;;;;;;;1.90;1.50;;;;;;;;;;5076380;28;20036;-77
2023/08/05 10:18:54;;;;;;;4.32;1.20;;;;;;;;;;5077232;28;20070;-77
2023/08/05 10:21:35;;;;;;;1.95;1.30;;;;;;;;;;5075550;28;20063;-76
2023/08/05 10:24:01;;;;;;;3.38;1.67;;;;;;;;;;5076887;28;20059;-77
2023/08/05 10:26:53;;;;;;;3.88;1.60;;;;;;;;;;5077150;28;20028;-78
2023/08/05 10:29:29;;;;;;;4.03;1.42;;;;;;;;;;5075471;28;20105;-75
2023/08/05 10:32:10;;;;;;;3.15;1.65;;;;;;;;;;5076591;28;20035;-76
2023/08/05 10:34:36;;;;;;;5.53;1.73;;;;;;;;;;5076714;28;20452;-76
2023/08/05 10:37:01;;;;;;;3.25;1.40;;;;;;;;;;5076686;28;20048;-75
2023/08/05 10:39:36;;;;;;;4.82;1.60;;;;;;;;;;5075214;28;20020;-76
2023/08/05 10:42:35;;;;;;;4.15;1.60;;;;;;;;;;5076418;28;20028;-77
2023/08/05 10:45:03;;;;;;;2.67;1.30;;;;;;;;;;5076479;28;20027;-76
2023/08/05 10:47:29;;;;;;;1.98;1.50;;;;;;;;;;5075002;28;20070;-76
2023/08/05 10:49:56;;;;;;;2.17;1.30;;;;;;;;;;5076239;28;20051;-77
2023/08/05 10:52:21;;;;;;;2.42;1.50;;;;;;;;;;5076357;28;20492;-76
2023/08/05 10:54:47;;;;;;;2.42;1.45;;;;;;;;;;5076567;28;20117;-76
2023/08/05 10:57:52;;;;;;;4.75;1.80;;;;;;;;;;5076156;28;20047;-76
2023/08/05 11:00:20;;;;;;;2.08;1.40;;;;;;;;;;5054354;28;20138;-77
2023/08/05 11:02:47;;;;;;;2.35;1.40;;;;;;;;;;5072462;28;20036;-76
2023/08/05 11:05:12;;;;;;;2.45;1.58;;;;;;;;;;5076293;28;20143;-77
2023/08/05 11:07:38;;;;;;;3.30;1.40;;;;;;;;;;5074691;28;20498;-76
2023/08/05 11:10:05;;;;;;;2.47;1.50;;;;;;;;;;5074678;28;20025;-76
2023/08/05 11:12:30;;;;;;;1.45;1.30;;;;;;;;;;5074499;28;20489;-77
2023/08/05 11:14:56;;;;;;;1.98;1.40;;;;;;;;;;5075843;28;20032;-77
2023/08/05 11:17:21;;;;;;;2.55;1.30;;;;;;;;;;5075868;28;20020;-76
2023/08/05 11:19:52;;;;;;;3.60;1.20;;;;;;;;;;5076192;28;20104;-77
2023/08/05 11:22:36;;;;;;;5.20;1.52;;;;;;;;;;5075796;28;20265;-76
2023/08/05 11:25:03;;;;;;;2.75;1.23;;;;;;;;;;5074606;28;20052;-76
2023/08/05 11:27:38;;;;;;;2.75;1.35;;;;;;;;;;5075908;28;20052;-76
2023/08/05 11:30:14;;;;;;;3.15;1.70;;;;;;;;;;5074094;28;20016;-76
2023/08/05 11:32:52;;;;;;;3.35;1.50;;;;;;;;;;5075775;28;20107;-76
2023/08/05 11:35:18;;;;;;;2.08;1.23;;;;;;;;;;5075494;28;20488;-75
2023/08/05 11:37:43;;;;;;;4.85;1.42;;;;;;;;;;5074116;28;20024;-75
2023/08/05 11:40:09;;;;;;;3.53;1.30;;;;;;;;;;5074199;28;20111;-76
2023/08/05 11:42:36;;;;;;;1.95;1.23;;;;;;;;;;5075258;28;20052;-77
2023/08/05 11:45:01;;;;;;;1.85;1.33;;;;;;;;;;5073956;28;20028;-77
2023/08/05 11:47:26;;;;;;;3.20;1.35;;;;;;;;;;5075141;28;20082;-77
2023/08/05 11:49:54;;;;;;;2.58;1.13;;;;;;;;;;5075338;28;20468;-77
2023/08/05 11:52:19;;;;;;;4.97;1.17;;;;;;;;;;5075166;28;20487;-77
2023/08/05 11:54:55;;;;;;;2.42;1.48;;;;;;;;;;5073772;28;20056;-77
2023/08/05 11:57:21;;;;;;;1.48;1.10;;;;;;;;;;5075081;28;20103;-77
2023/08/05 11:59:47;;;;;;;2.70;1.20;;;;;;;;;;5075089;28;20487;-76
2023/08/05 12:02:14;;;;;;;2.45;1.10;;;;;;;;;;5074886;28;20020;-77
2023/08/05 12:04:50;;;;;;;4.00;1.40;;;;;;;;;;5075289;28;20025;-77
2023/08/05 12:07:18;;;;;;;2.08;1.38;;;;;;;;;;5073594;28;20024;-77
2023/08/05 12:09:43;;;;;;;3.08;1.25;;;;;;;;;;5075232;28;20075;-76
2023/08/05 12:12:16;;;;;;;4.18;1.40;;;;;;;;;;5072697;28;20427;-74
2023/08/05 12:14:42;;;;;;;1.57;1.17;;;;;;;;;;5074613;28;20395;-77
2023/08/05 12:17:07;;;;;;;2.47;1.13;;;;;;;;;;5074252;28;20174;-77
2023/08/05 12:19:32;;;;;;;4.80;1.15;;;;;;;;;;5074475;28;20085;-78
2023/08/05 12:21:58;;;;;;;1.58;1.10;;;;;;;;;;5073380;28;20028;-76
2023/08/05 12:24:23;;;;;;;1.88;1.27;;;;;;;;;;5073221;28;20027;-76
2023/08/05 12:26:48;;;;;;;2.50;1.10;;;;;;;;;;5073039;28;20115;-77
2023/08/05 12:29:13;;;;;;;3.47;1.23;;;;;;;;;;5073749;28;20281;-76
2023/08/05 12:31:39;;;;;;;2.13;1.15;;;;;;;;;;5072967;28;20028;-76
2023/08/05 12:34:04;;;;;;;1.70;1.13;;;;;;;;;;5073639;28;20032;-76
2023/08/05 12:36:29;;;;;;;1.45;1.15;;;;;;;;;;5072168;28;20302;-76
2023/08/05 12:38:55;;;;;;;1.17;1.00;;;;;;;;;;5074066;28;20475;-76
2023/08/05 12:41:20;;;;;;;2.63;1.05;;;;;;;;;;5073945;28;20023;-77
2023/08/05 12:43:45;;;;;;;1.10;1.00;;;;;;;;;;5072230;28;20368;-78
2023/08/05 12:46:10;;;;;;;4.33;1.33;;;;;;;;;;5073877;28;20271;-77
2023/08/05 12:48:36;;;;;;;2.63;1.60;;;;;;;;;;5075254;28;20321;-77
2023/08/05 12:51:01;;;;;;;2.30;1.17;;;;;;;;;;5073763;28;20269;-77
2023/08/05 12:53:26;;;;;;;2.67;1.10;;;;;;;;;;5074662;28;20261;-77
2023/08/05 12:55:52;;;;;;;1.70;1.20;;;;;;;;;;5075307;28;20032;-77
2023/08/05 12:58:17;;;;;;;2.97;1.40;;;;;;;;;;5074055;28;20260;-76
2023/08/05 13:00:42;;;;;;;1.33;1.05;;;;;;;;;;5072204;28;20502;-77
2023/08/05 13:03:08;;;;;;;3.20;1.30;;;;;;;;;;5072473;28;20024;-77
2023/08/05 13:05:33;;;;;;;1.92;1.20;;;;;;;;;;5073487;28;20483;-76
2023/08/05 13:07:58;;;;;;;2.83;1.20;;;;;;;;;;5073727;28;20075;-77
2023/08/05 13:10:26;;;;;;;2.63;1.40;;;;;;;;;;5072887;28;20475;-77
2023/08/05 13:12:51;;;;;;;2.38;1.17;;;;;;;;;;5073594;28;20267;-77
2023/08/05 13:15:17;;;;;;;2.67;1.30;;;;;;;;;;5072157;28;20114;-77
2023/08/05 13:17:42;;;;;;;3.30;1.10;;;;;;;;;;5072376;28;20063;-76
2023/08/05 13:20:08;;;;;;;4.07;1.50;;;;;;;;;;5073828;28;20021;-77
2023/08/05 13:22:33;;;;;;;4.95;1.35;;;;;;;;;;5074446;28;20059;-78
2023/08/05 13:24:59;;;;;;;2.42;1.20;;;;;;;;;;5074196;28;20025;-77
2023/08/05 13:27:25;;;;;;;1.88;1.20;;;;;;;;;;5073633;28;20027;-77
2023/08/05 13:29:51;;;;;;;2.53;1.30;;;;;;;;;;5073360;28;20058;-77
2023/08/05 13:32:16;;;;;;;2.20;1.30;;;;;;;;;;5073632;28;20462;-77
2023/08/05 13:34:41;;;;;;;3.03;1.30;;;;;;;;;;5074974;28;20024;-77
2023/08/05 13:37:06;;;;;;;3.47;1.10;;;;;;;;;;5073388;28;20103;-77
2023/08/05 13:39:32;;;;;;;3.15;1.20;;;;;;;;;;5073844;28;20651;-78
2023/08/05 13:41:59;;;;;;;1.95;1.20;;;;;;;;;;5070977;28;20104;-77
2023/08/05 13:44:25;;;;;;;3.72;1.23;;;;;;;;;;5073880;28;20028;-77
2023/08/05 13:46:51;;;;;;;4.15;1.10;;;;;;;;;;5075024;28;20074;-77
2023/08/05 13:49:16;;;;;;;3.42;1.30;;;;;;;;;;5074486;28;20426;-78
2023/08/05 13:51:41;;;;;;;1.40;1.10;;;;;;;;;;5074526;28;20040;-75
2023/08/05 13:54:07;;;;;;;1.98;1.20;;;;;;;;;;5074630;28;20388;-77
2023/08/05 13:56:32;;;;;;;4.85;1.30;;;;;;;;;;5075346;28;20796;-77
2023/08/05 13:58:58;;;;;;;3.67;1.20;;;;;;;;;;5077017;28;20028;-78
2023/08/05 14:01:23;;;;;;;2.30;1.30;;;;;;;;;;5075985;28;20027;-77
2023/08/05 14:03:48;;;;;;;2.67;1.27;;;;;;;;;;5071142;28;20077;-78
2023/08/05 14:06:14;;;;;;;4.00;1.20;;;;;;;;;;5073378;28;20399;-77
2023/08/05 14:08:39;;;;;;;1.60;1.10;;;;;;;;;;5072873;28;20067;-77
2023/08/05 14:11:04;;;;;;;2.30;1.10;;;;;;;;;;5073451;28;20070;-77
2023/08/05 14:13:29;;;;;;;1.90;1.30;;;;;;;;;;5073513;28;20364;-77
2023/08/05 14:15:56;;;;;;;3.30;1.40;;;;;;;;;;5073389;28;20107;-77
2023/08/05 14:18:21;;;;;;;1.20;1.05;;;;;;;;;;5071472;28;20268;-77
2023/08/05 14:20:47;;;;;;;3.13;1.25;;;;;;;;;;5073083;28;20107;-76
2023/08/05 14:23:13;;;;;;;3.05;1.40;;;;;;;;;;5071611;28;20116;-76
2023/08/05 14:25:39;;;;;;;2.13;1.30;;;;;;;;;;5072088;28;20539;-77
2023/08/05 14:28:04;;;;;;;3.00;1.10;;;;;;;;;;5073504;28;20107;-77
2023/08/05 14:30:30;;;;;;;2.55;1.25;;;;;;;;;;5071665;28;20112;-75
2023/08/05 14:32:55;;;;;;;2.05;1.23;;;;;;;;;;5070632;28;20016;-75
2023/08/05 14:35:20;;;;;;;2.15;1.20;;;;;;;;;;5071595;28;20028;-76
2023/08/05 14:37:45;;;;;;;2.17;1.38;;;;;;;;;;5071872;28;20024;-77
2023/08/05 14:40:11;;;;;;;3.85;1.50;;;;;;;;;;5071601;28;20013;-76